Time;durP1;ratioP1;P1;durP2;ratioP2;P2;SDS_P1;SDS_P2;PMS_P1;PMS_P2;Temp;Humidity;BMP_temperature;BMP_pressure;BME280_temperature;BME280_humidity;BME280_pressure;Samples;Min_cycle;Max_cycle;Signal;HPM_P1;HPM_P2
2020/12/19 00:00:09;;;;;;;23.95;9.93;;;;;;;-0.40;100.00;96519.97;1048216;28;20024;-74
2020/12/19 00:00:39;;;;;;;17.35;8.88;;;;;;;-0.39;100.00;96519.00;1052516;28;20016;-74
2020/12/19 00:01:10;;;;;;;11.38;8.45;;;;;;;-0.34;100.00;96514.09;1052389;28;20015;-74
2020/12/19 00:01:40;;;;;;;12.43;9.38;;;;;;;-0.32;100.00;96522.56;1052590;28;20066;-74
2020/12/19 00:02:11;;;;;;;16.70;10.05;;;;;;;-0.37;100.00;96511.81;1052552;28;20061;-74
2020/12/19 00:02:41;;;;;;;54.15;9.70;;;;;;;-0.47;100.00;96516.44;1052244;28;20035;-73
2020/12/19 00:03:11;;;;;;;24.30;9.63;;;;;;;-0.52;100.00;96508.31;1047965;28;20017;-74
2020/12/19 00:03:43;;;;;;;17.10;9.23;;;;;;;-0.50;100.00;96514.16;1048090;28;20092;-74
2020/12/19 00:04:13;;;;;;;24.10;8.75;;;;;;;-0.46;100.00;96507.66;1044035;28;20111;-74
2020/12/19 00:04:44;;;;;;;10.40;8.25;;;;;;;-0.43;100.00;96510.72;1048297;28;20134;-74
2020/12/19 00:05:14;;;;;;;10.75;8.50;;;;;;;-0.39;100.00;96519.81;1047899;28;20461;-74
2020/12/19 00:05:45;;;;;;;66.55;10.07;;;;;;;-0.40;100.00;96514.78;1048116;28;20075;-73
2020/12/19 00:06:15;;;;;;;24.02;8.00;;;;;;;-0.43;100.00;96512.50;1052118;28;20016;-73
2020/12/19 00:06:46;;;;;;;30.63;9.68;;;;;;;-0.46;100.00;96507.66;1048093;28;20043;-74
2020/12/19 00:07:17;;;;;;;50.35;10.02;;;;;;;-0.55;100.00;96511.28;1052101;28;20008;-73
2020/12/19 00:07:48;;;;;;;24.13;9.32;;;;;;;-0.63;100.00;96514.72;1052263;28;20062;-74
2020/12/19 00:08:18;;;;;;;14.27;8.60;;;;;;;-0.56;100.00;96517.47;1049076;28;20535;-74
2020/12/19 00:08:49;;;;;;;55.58;9.20;;;;;;;-0.56;100.00;96507.03;1049216;28;20450;-73
2020/12/19 00:09:19;;;;;;;22.13;8.55;;;;;;;-0.54;100.00;96508.50;1046091;28;20492;-74
2020/12/19 00:09:49;;;;;;;16.40;8.15;;;;;;;-0.58;100.00;96514.22;1046353;28;20025;-73
2020/12/19 00:10:20;;;;;;;48.67;9.48;;;;;;;-0.64;100.00;96508.69;1049104;28;20072;-74
2020/12/19 00:10:50;;;;;;;22.42;8.68;;;;;;;-0.63;100.00;96506.91;1049275;28;20074;-74
2020/12/19 00:11:21;;;;;;;37.00;9.20;;;;;;;-0.65;100.00;96514.06;1054350;28;20065;-74
2020/12/19 00:11:54;;;;;;;31.83;9.05;;;;;;;-0.67;100.00;96503.81;1054315;28;20031;-73
2020/12/19 00:12:24;;;;;;;34.05;8.98;;;;;;;-0.62;100.00;96501.53;1055366;28;20035;-73
2020/12/19 00:12:59;;;;;;;40.22;10.50;;;;;;;-0.68;100.00;96502.22;1053598;28;20039;-73
2020/12/19 00:13:29;;;;;;;31.40;8.98;;;;;;;-0.65;100.00;96508.88;1054213;28;20524;-74
2020/12/19 00:14:00;;;;;;;30.20;11.18;;;;;;;-0.74;100.00;96505.47;1053643;28;20024;-74
2020/12/19 00:14:30;;;;;;;26.52;9.65;;;;;;;-0.74;100.00;96499.44;1054050;28;20035;-74
2020/12/19 00:15:01;;;;;;;16.95;9.55;;;;;;;-0.73;100.00;96501.06;1054838;28;20030;-74
2020/12/19 00:15:32;;;;;;;17.02;9.05;;;;;;;-0.69;100.00;96502.38;1054510;28;20357;-74
2020/12/19 00:16:03;;;;;;;17.15;9.35;;;;;;;-0.73;100.00;96501.88;1053710;28;20028;-73
2020/12/19 00:16:33;;;;;;;13.27;8.20;;;;;;;-0.55;100.00;96493.03;1053708;28;20212;-73
2020/12/19 00:17:03;;;;;;;9.23;7.75;;;;;;;-0.42;100.00;96493.31;1054709;28;20664;-74
2020/12/19 00:17:34;;;;;;;20.95;8.48;;;;;;;-0.45;100.00;96494.47;1054915;28;20039;-74
2020/12/19 00:18:04;;;;;;;26.50;10.18;;;;;;;-0.58;100.00;96490.78;1053563;28;20391;-73
2020/12/19 00:18:35;;;;;;;48.13;12.20;;;;;;;-0.70;100.00;96491.16;1053748;28;20117;-73
2020/12/19 00:19:05;;;;;;;23.15;9.23;;;;;;;-0.70;100.00;96487.75;1055936;28;20012;-73
2020/12/19 00:19:36;;;;;;;35.03;9.80;;;;;;;-0.71;100.00;96492.13;1056085;28;20036;-74
2020/12/19 00:20:06;;;;;;;12.95;7.45;;;;;;;-0.64;100.00;96494.88;1055970;28;20011;-73
2020/12/19 00:20:37;;;;;;;8.85;7.80;;;;;;;-0.53;100.00;96493.69;1056176;28;20032;-74
2020/12/19 00:21:08;;;;;;;13.05;8.98;;;;;;;-0.53;100.00;96493.69;1056492;28;20043;-73
2020/12/19 00:21:38;;;;;;;26.33;9.85;;;;;;;-0.58;100.00;96493.38;1056459;28;20114;-73
2020/12/19 00:22:09;;;;;;;11.52;8.77;;;;;;;-0.58;100.00;96491.59;1056376;28;20026;-73
2020/12/19 00:22:39;;;;;;;13.50;8.38;;;;;;;-0.55;100.00;96495.66;1056392;28;20028;-74
2020/12/19 00:23:10;;;;;;;11.82;8.68;;;;;;;-0.52;100.00;96495.31;1056453;28;20024;-73
2020/12/19 00:23:40;;;;;;;15.65;9.23;;;;;;;-0.51;100.00;96496.91;1056436;28;20019;-73
2020/12/19 00:24:10;;;;;;;12.60;8.38;;;;;;;-0.43;100.00;96497.69;1056303;28;20022;-73
2020/12/19 00:24:41;;;;;;;12.25;8.55;;;;;;;-0.46;100.00;96497.25;1056489;28;20035;-73
2020/12/19 00:25:11;;;;;;;9.65;8.25;;;;;;;-0.32;100.00;96504.31;1056347;28;20027;-73
2020/12/19 00:25:42;;;;;;;22.38;8.38;;;;;;;-0.30;100.00;96502.34;1056351;28;20034;-73
2020/12/19 00:26:12;;;;;;;31.30;8.77;;;;;;;-0.37;100.00;96490.97;1056650;28;20019;-73
2020/12/19 00:26:43;;;;;;;52.45;10.40;;;;;;;-0.53;100.00;96486.69;1057183;28;20032;-74
2020/12/19 00:27:13;;;;;;;14.82;8.52;;;;;;;-0.44;100.00;96490.88;1057127;28;20164;-73
2020/12/19 00:27:44;;;;;;;17.90;8.25;;;;;;;-0.43;100.00;96497.69;1057186;28;20114;-73
2020/12/19 00:28:14;;;;;;;18.48;9.00;;;;;;;-0.44;100.00;96497.88;1057031;28;20080;-73
2020/12/19 00:28:45;;;;;;;29.15;8.15;;;;;;;-0.45;100.00;96496.25;1057260;28;20019;-73
2020/12/19 00:29:16;;;;;;;30.67;9.02;;;;;;;-0.48;100.00;96497.38;1056091;28;20031;-73
2020/12/19 00:29:46;;;;;;;28.88;7.97;;;;;;;-0.48;100.00;96488.75;1053293;28;20020;-73
2020/12/19 00:30:16;;;;;;;24.73;8.80;;;;;;;-0.54;100.00;96492.06;1053149;28;20024;-73
2020/12/19 00:30:47;;;;;;;8.93;7.97;;;;;;;-0.50;100.00;96491.53;1053205;28;20028;-73
2020/12/19 00:31:23;;;;;;;13.68;8.38;;;;;;;-0.54;100.00;96489.47;1053234;28;20480;-73
2020/12/19 00:31:53;;;;;;;10.18;7.63;;;;;;;-0.43;100.00;96491.69;1053153;28;20411;-73
2020/12/19 00:32:24;;;;;;;8.52;7.63;;;;;;;-0.46;100.00;96486.81;1053047;28;20042;-73
2020/12/19 00:32:54;;;;;;;30.50;8.88;;;;;;;-0.51;100.00;96483.91;1053213;28;20027;-74
2020/12/19 00:33:24;;;;;;;27.67;8.20;;;;;;;-0.50;100.00;96491.53;1053124;28;20096;-73
2020/12/19 00:33:55;;;;;;;14.30;8.65;;;;;;;-0.51;100.00;96486.50;1053290;28;20077;-73
2020/12/19 00:34:25;;;;;;;18.08;8.35;;;;;;;-0.54;100.00;96492.06;1053190;28;20084;-73
2020/12/19 00:34:56;;;;;;;29.70;8.68;;;;;;;-0.56;100.00;96488.81;1053364;28;20411;-73
2020/12/19 00:35:26;;;;;;;28.77;9.02;;;;;;;-0.55;100.00;96491.25;1053160;28;20469;-73
2020/12/19 00:35:57;;;;;;;53.05;10.02;;;;;;;-0.60;100.00;96494.34;1053318;28;20028;-73
2020/12/19 00:36:27;;;;;;;34.08;9.40;;;;;;;-0.63;100.00;96484.28;1053151;28;20020;-73
2020/12/19 00:36:59;;;;;;;16.35;9.10;;;;;;;-0.51;100.00;96489.09;1052850;28;20077;-73
2020/12/19 00:37:30;;;;;;;53.67;9.68;;;;;;;-0.55;100.00;96488.66;1052903;28;20016;-73
2020/12/19 00:38:00;;;;;;;32.25;8.52;;;;;;;-0.56;100.00;96491.41;1052957;28;20015;-73
2020/12/19 00:38:31;;;;;;;44.40;10.00;;;;;;;-0.63;100.00;96484.28;1048608;28;20408;-73
2020/12/19 00:39:01;;;;;;;22.90;8.55;;;;;;;-0.57;100.00;96492.41;1052880;28;20429;-73
2020/12/19 00:39:32;;;;;;;20.70;8.15;;;;;;;-0.53;100.00;96485.88;1052910;28;20026;-73
2020/12/19 00:40:02;;;;;;;22.02;8.65;;;;;;;-0.56;100.00;96489.63;1052970;28;20020;-73
2020/12/19 00:40:33;;;;;;;32.70;8.20;;;;;;;-0.57;100.00;96487.19;1052490;28;20077;-73
2020/12/19 00:41:03;;;;;;;69.18;11.82;;;;;;;-0.73;100.00;96485.47;1052917;28;20024;-74
2020/12/19 00:41:34;;;;;;;76.68;11.00;;;;;;;-0.62;100.00;96487.69;1052805;28;20016;-74
2020/12/19 00:42:04;;;;;;;121.60;13.70;;;;;;;-0.82;100.00;96484.69;1052851;28;20057;-75
2020/12/19 00:42:38;;;;;;;130.13;15.10;;;;;;;-0.94;100.00;96488.66;1052637;28;20187;-75
2020/12/19 00:43:08;;;;;;;24.48;9.23;;;;;;;-0.76;100.00;96485.81;1049146;28;20159;-77
2020/12/19 00:43:39;;;;;;;57.38;11.18;;;;;;;-0.75;100.00;96490.03;1052764;28;20027;-75
2020/12/19 00:44:09;;;;;;;22.10;8.32;;;;;;;-0.73;100.00;96481.06;1052628;28;20051;-74
2020/12/19 00:44:40;;;;;;;31.00;8.13;;;;;;;-0.69;100.00;96479.75;1052918;28;20483;-74
2020/12/19 00:45:10;;;;;;;42.25;10.65;;;;;;;-0.72;100.00;96479.28;1053169;28;20035;-74
2020/12/19 00:45:40;;;;;;;33.90;9.35;;;;;;;-0.72;100.00;96482.69;1053073;28;20028;-73
2020/12/19 00:46:12;;;;;;;87.45;10.65;;;;;;;-0.72;100.00;96476.66;1053217;28;20024;-73
2020/12/19 00:46:42;;;;;;;17.52;8.88;;;;;;;-0.75;100.00;96472.63;1052873;28;20512;-74
2020/12/19 00:47:13;;;;;;;53.83;10.45;;;;;;;-0.76;100.00;96476.19;1044430;28;20107;-74
2020/12/19 00:47:43;;;;;;;18.75;8.60;;;;;;;-0.71;100.00;96470.47;1044574;28;20071;-74
2020/12/19 00:48:14;;;;;;;27.35;9.57;;;;;;;-0.66;100.00;96482.03;1044395;28;20025;-73
2020/12/19 00:48:44;;;;;;;15.57;9.25;;;;;;;-0.62;100.00;96474.69;1051239;28;20016;-73
2020/12/19 00:49:15;;;;;;;25.27;9.18;;;;;;;-0.70;100.00;96469.53;1052284;28;20024;-73
2020/12/19 00:49:45;;;;;;;14.15;8.65;;;;;;;-0.57;100.00;96468.97;1052446;28;20016;-74
2020/12/19 00:50:15;;;;;;;22.65;9.02;;;;;;;-0.60;100.00;96470.91;1052374;28;20079;-74
2020/12/19 00:50:46;;;;;;;14.77;8.40;;;;;;;-0.60;100.00;96476.13;1052818;28;20023;-74
2020/12/19 00:51:18;;;;;;;15.80;8.13;;;;;;;-0.58;100.00;96467.34;1053084;28;20086;-75
2020/12/19 00:51:48;;;;;;;47.25;9.25;;;;;;;-0.71;100.00;96463.50;1053141;28;20476;-75
2020/12/19 00:52:21;;;;;;;12.13;8.70;;;;;;;-0.63;100.00;96476.47;1052829;28;20074;-75
2020/12/19 00:52:52;;;;;;;14.07;8.15;;;;;;;-0.56;100.00;96475.81;1056975;28;20507;-74
2020/12/19 00:53:22;;;;;;;37.75;9.48;;;;;;;-0.59;100.00;96471.75;1052695;28;20023;-73
2020/12/19 00:53:52;;;;;;;32.35;9.38;;;;;;;-0.63;100.00;96473.88;1052959;28;20024;-73
2020/12/19 00:54:23;;;;;;;29.48;10.13;;;;;;;-0.72;100.00;96479.28;1053200;28;20039;-73
2020/12/19 00:54:53;;;;;;;57.33;12.15;;;;;;;-0.75;100.00;96480.44;1053143;28;20013;-73
2020/12/19 00:55:24;;;;;;;13.75;8.73;;;;;;;-0.71;100.00;96473.06;1053092;28;20020;-73
2020/12/19 00:55:54;;;;;;;34.35;9.68;;;;;;;-0.71;100.00;96476.53;1053145;28;20016;-73
2020/12/19 00:56:26;;;;;;;25.20;9.18;;;;;;;-0.71;100.00;96484.34;1052814;28;20037;-73
2020/12/19 00:56:57;;;;;;;46.65;12.05;;;;;;;-0.91;100.00;96477.91;1052935;28;20020;-74
2020/12/19 00:57:30;;;;;;;23.23;9.73;;;;;;;-0.82;100.00;96463.88;1052967;28;20027;-75
2020/12/19 00:58:01;;;;;;;23.15;9.40;;;;;;;-0.77;100.00;96466.78;1053067;28;20069;-75
2020/12/19 00:58:31;;;;;;;78.57;13.88;;;;;;;-0.88;100.00;96474.94;1052697;28;20031;-74
2020/12/19 00:59:02;;;;;;;58.22;12.05;;;;;;;-0.85;100.00;96479.00;1052907;28;20495;-74
2020/12/19 00:59:32;;;;;;;40.90;11.05;;;;;;;-0.85;100.00;96476.41;1052753;28;20028;-75
2020/12/19 01:00:03;;;;;;;36.03;10.20;;;;;;;-0.82;100.00;96481.28;1052308;28;20024;-75
2020/12/19 01:00:34;;;;;;;21.55;9.20;;;;;;;-0.70;100.00;96472.94;1052679;28;20525;-75
2020/12/19 01:01:04;;;;;;;36.08;9.80;;;;;;;-0.68;100.00;96477.97;1052740;28;20066;-75
2020/12/19 01:01:35;;;;;;;53.20;11.38;;;;;;;-0.79;100.00;96479.16;1052738;28;20085;-75
2020/12/19 01:02:06;;;;;;;30.15;9.75;;;;;;;-0.71;100.00;96481.72;1053466;28;20062;-75
2020/12/19 01:02:37;;;;;;;25.70;10.05;;;;;;;-0.77;100.00;96474.59;1053106;28;20423;-75
2020/12/19 01:03:07;;;;;;;61.30;12.55;;;;;;;-0.77;100.00;96477.19;1053084;28;20020;-75
2020/12/19 01:03:38;;;;;;;55.60;13.40;;;;;;;-0.81;100.00;96478.50;1053082;28;20031;-75
2020/12/19 01:04:08;;;;;;;18.15;9.65;;;;;;;-0.73;100.00;96478.47;1053096;28;20024;-74
2020/12/19 01:04:38;;;;;;;18.65;10.23;;;;;;;-0.78;100.00;96483.38;1053254;28;20035;-73
2020/12/19 01:05:09;;;;;;;14.00;10.35;;;;;;;-0.72;100.00;96476.66;1052662;28;20031;-73
2020/12/19 01:05:39;;;;;;;23.42;9.65;;;;;;;-0.66;100.00;96486.41;1048507;28;20027;-72
2020/12/19 01:06:20;;;;;;;13.68;8.88;;;;;;;-0.60;100.00;96483.94;1048610;28;20016;-72
2020/12/19 01:06:50;;;;;;;28.23;9.20;;;;;;;-0.63;100.00;96483.47;1054207;28;20464;-72
2020/12/19 01:07:21;;;;;;;20.58;9.10;;;;;;;-0.58;100.00;96477.78;1052116;28;20043;-73
2020/12/19 01:07:51;;;;;;;14.43;10.23;;;;;;;-0.61;100.00;96482.31;1053078;28;20526;-73
2020/12/19 01:08:22;;;;;;;12.07;8.50;;;;;;;-0.56;100.00;96478.41;1052451;28;20032;-74
2020/12/19 01:08:59;;;;;;;34.53;9.82;;;;;;;-0.62;100.00;96482.47;1052618;28;20427;-73
2020/12/19 01:09:29;;;;;;;24.42;9.57;;;;;;;-0.65;100.00;96485.44;1052522;28;20027;-73
2020/12/19 01:10:00;;;;;;;39.53;8.68;;;;;;;-0.64;100.00;96482.66;1053546;28;20027;-73
2020/12/19 01:10:30;;;;;;;28.48;9.90;;;;;;;-0.67;100.00;96482.19;1056946;28;20019;-74
2020/12/19 01:11:01;;;;;;;20.08;8.77;;;;;;;-0.63;100.00;96479.06;1056727;28;20019;-73
2020/12/19 01:11:32;;;;;;;20.58;8.90;;;;;;;-0.61;100.00;96484.91;1056577;28;20023;-73
2020/12/19 01:12:04;;;;;;;14.45;8.73;;;;;;;-0.57;100.00;96482.81;1056701;28;20007;-73
2020/12/19 01:12:35;;;;;;;29.70;9.68;;;;;;;-0.60;100.00;96483.94;1056727;28;20015;-74
2020/12/19 01:13:05;;;;;;;46.97;10.85;;;;;;;-0.63;100.00;96483.47;1056760;28;20016;-73
2020/12/19 01:13:36;;;;;;;112.82;13.70;;;;;;;-0.67;100.00;96483.00;1057044;28;20022;-73
2020/12/19 01:14:06;;;;;;;41.97;10.77;;;;;;;-0.68;100.00;96484.00;1056920;28;20020;-74
2020/12/19 01:14:36;;;;;;;25.92;8.93;;;;;;;-0.62;100.00;96477.28;1056999;28;20016;-74
2020/12/19 01:15:07;;;;;;;27.80;8.77;;;;;;;-0.55;100.00;96487.84;1057028;28;20012;-73
2020/12/19 01:15:37;;;;;;;35.50;10.90;;;;;;;-0.61;100.00;96482.31;1057065;28;20016;-73
2020/12/19 01:16:08;;;;;;;21.25;9.32;;;;;;;-0.51;100.00;96479.50;1052924;28;20477;-73
2020/12/19 01:16:38;;;;;;;17.63;9.13;;;;;;;-0.56;100.00;96481.81;1053106;28;20008;-73
2020/12/19 01:17:09;;;;;;;26.67;9.00;;;;;;;-0.54;100.00;96481.66;1057028;28;20004;-73
2020/12/19 01:17:40;;;;;;;15.98;9.20;;;;;;;-0.54;100.00;96484.25;1057048;28;20011;-73
2020/12/19 01:18:10;;;;;;;17.20;10.07;;;;;;;-0.53;100.00;96478.06;1056874;28;20015;-73
2020/12/19 01:18:42;;;;;;;13.98;8.20;;;;;;;-0.51;100.00;96483.91;1057079;28;20364;-73
2020/12/19 01:19:12;;;;;;;48.20;10.73;;;;;;;-0.66;100.00;96478.59;1056957;27;20035;-73
2020/12/19 01:19:43;;;;;;;52.22;11.45;;;;;;;-0.78;100.00;96477.34;1057063;28;20529;-73
2020/12/19 01:20:13;;;;;;;28.92;8.80;;;;;;;-0.65;100.00;96478.44;1056886;28;20065;-73
2020/12/19 01:20:44;;;;;;;87.60;13.32;;;;;;;-0.74;100.00;96484.66;1057013;28;20011;-73
2020/12/19 01:21:19;;;;;;;49.00;9.55;;;;;;;-0.75;100.00;96490.03;1056966;28;20373;-74
2020/12/19 01:21:49;;;;;;;72.13;12.52;;;;;;;-0.79;100.00;96486.16;1044481;28;20005;-73
2020/12/19 01:22:20;;;;;;;44.58;10.40;;;;;;;-0.74;100.00;96474.22;1044255;28;20471;-73
2020/12/19 01:22:50;;;;;;;32.15;9.75;;;;;;;-0.68;100.00;96477.97;1044471;28;20067;-73
2020/12/19 01:23:21;;;;;;;56.85;11.25;;;;;;;-0.73;100.00;96480.25;1044616;28;20072;-73
2020/12/19 01:23:51;;;;;;;105.50;12.35;;;;;;;-0.78;100.00;96483.38;1053079;28;20077;-73
2020/12/19 01:24:21;;;;;;;37.05;9.43;;;;;;;-0.73;100.00;96483.66;1052662;28;20030;-73
2020/12/19 01:24:52;;;;;;;52.08;10.05;;;;;;;-0.70;100.00;96485.13;1048491;28;20011;-73
2020/12/19 01:25:22;;;;;;;67.53;13.02;;;;;;;-0.81;100.00;96488.91;1048527;28;20518;-73
2020/12/19 01:25:53;;;;;;;44.42;11.23;;;;;;;-0.85;100.00;96487.63;1048620;28;20463;-73
2020/12/19 01:26:23;;;;;;;27.67;9.65;;;;;;;-0.79;100.00;96478.34;1052679;28;20514;-73
2020/12/19 01:26:54;;;;;;;33.38;9.93;;;;;;;-0.88;100.00;96480.16;1052902;28;20085;-73
2020/12/19 01:27:24;;;;;;;100.95;12.02;;;;;;;-0.83;100.00;96484.84;1053004;28;20019;-73
2020/12/19 01:27:54;;;;;;;35.35;9.32;;;;;;;-0.81;100.00;96485.50;1053043;28;20414;-73
2020/12/19 01:28:25;;;;;;;15.35;9.00;;;;;;;-0.74;100.00;96481.22;1053027;28;20012;-73
2020/12/19 01:28:55;;;;;;;53.03;9.70;;;;;;;-0.72;100.00;96474.06;1053073;28;20012;-73
2020/12/19 01:29:26;;;;;;;59.80;11.02;;;;;;;-0.83;100.00;96482.25;1052501;28;20016;-73
2020/12/19 01:29:56;;;;;;;27.90;9.23;;;;;;;-0.80;100.00;96477.53;1052670;28;20013;-73
2020/12/19 01:30:26;;;;;;;19.70;8.90;;;;;;;-0.67;100.00;96474.38;1052711;28;20081;-73
2020/12/19 01:31:02;;;;;;;68.50;11.57;;;;;;;-0.75;100.00;96474.41;1052672;28;20085;-73
2020/12/19 01:31:32;;;;;;;63.20;11.00;;;;;;;-0.78;100.00;96475.56;1052607;28;20443;-73
2020/12/19 01:32:03;;;;;;;28.25;9.30;;;;;;;-0.76;100.00;96476.19;1052805;28;20019;-73
2020/12/19 01:32:33;;;;;;;48.20;10.27;;;;;;;-0.68;100.00;96477.97;1052617;28;20046;-74
2020/12/19 01:33:05;;;;;;;52.25;10.45;;;;;;;-0.76;100.00;96476.19;1052671;28;20081;-73
2020/12/19 01:33:35;;;;;;;72.82;13.65;;;;;;;-0.90;100.00;96479.50;1052988;28;20081;-73
2020/12/19 01:34:05;;;;;;;62.88;10.80;;;;;;;-0.88;100.00;96477.56;1053057;28;20089;-73
2020/12/19 01:34:36;;;;;;;40.38;9.85;;;;;;;-0.84;100.00;96478.81;1052983;28;20016;-72
2020/12/19 01:35:06;;;;;;;25.08;9.38;;;;;;;-0.85;100.00;96477.22;1052940;28;20016;-73
2020/12/19 01:35:37;;;;;;;66.47;12.15;;;;;;;-0.82;100.00;96486.50;1053031;28;20461;-73
2020/12/19 01:36:12;;;;;;;18.33;8.57;;;;;;;-0.71;100.00;96479.13;1052902;28;20028;-73
2020/12/19 01:36:43;;;;;;;20.55;9.20;;;;;;;-0.84;100.00;96478.81;1052936;28;20463;-73
2020/12/19 01:37:13;;;;;;;76.38;12.52;;;;;;;-0.76;100.00;96481.41;1052372;28;20028;-73
2020/12/19 01:37:44;;;;;;;55.15;11.18;;;;;;;-0.85;100.00;96473.78;1047872;28;20473;-73
2020/12/19 01:38:14;;;;;;;27.15;9.55;;;;;;;-0.80;100.00;96476.72;1048169;28;20028;-73
2020/12/19 01:38:45;;;;;;;29.52;9.57;;;;;;;-0.75;100.00;96470.00;1048577;28;20021;-73
2020/12/19 01:39:15;;;;;;;42.67;10.38;;;;;;;-0.80;100.00;96477.53;1048455;28;20033;-72
2020/12/19 01:39:45;;;;;;;26.52;9.20;;;;;;;-0.73;100.00;96470.66;1053083;28;20137;-73
2020/12/19 01:40:16;;;;;;;37.15;9.80;;;;;;;-0.79;100.00;96473.13;1048459;28;20036;-73
2020/12/19 01:40:50;;;;;;;31.42;9.65;;;;;;;-0.68;100.00;96473.56;1048419;28;20040;-73
2020/12/19 01:41:21;;;;;;;25.67;9.38;;;;;;;-0.67;100.00;96480.41;1048414;28;20032;-73
2020/12/19 01:41:52;;;;;;;16.60;8.93;;;;;;;-0.66;100.00;96474.22;1049237;28;20025;-73
2020/12/19 01:42:23;;;;;;;23.05;9.18;;;;;;;-0.72;100.00;96471.47;1052922;28;20020;-73
2020/12/19 01:42:54;;;;;;;21.88;9.40;;;;;;;-0.72;100.00;96466.25;1052812;28;20384;-73
2020/12/19 01:43:24;;;;;;;17.45;9.52;;;;;;;-0.64;100.00;96472.25;1052733;28;20410;-73
2020/12/19 01:43:56;;;;;;;14.40;9.15;;;;;;;-0.58;100.00;96472.56;1053019;28;20027;-73
2020/12/19 01:44:26;;;;;;;23.90;9.40;;;;;;;-0.64;100.00;96474.84;1052871;28;20019;-73
2020/12/19 01:44:57;;;;;;;66.07;10.57;;;;;;;-0.64;100.00;96469.63;1053060;28;20028;-73
2020/12/19 01:45:27;;;;;;;62.83;10.90;;;;;;;-0.70;100.00;96469.53;1052506;28;20019;-73
2020/12/19 01:45:58;;;;;;;22.13;8.85;;;;;;;-0.67;100.00;96469.19;1052673;28;20438;-73
2020/12/19 01:46:31;;;;;;;55.00;11.25;;;;;;;-0.69;100.00;96477.16;1052547;28;20027;-73
2020/12/19 01:47:02;;;;;;;81.03;12.88;;;;;;;-0.80;100.00;96461.91;1052766;28;20024;-73
2020/12/19 01:47:33;;;;;;;44.78;11.07;;;;;;;-0.82;100.00;96465.66;1052882;28;20016;-73
2020/12/19 01:48:04;;;;;;;33.85;9.57;;;;;;;-0.78;100.00;96467.75;1048536;28;20024;-73
2020/12/19 01:48:34;;;;;;;60.30;10.27;;;;;;;-0.83;100.00;96471.81;1041582;28;20025;-71
2020/12/19 01:49:05;;;;;;;34.55;10.18;;;;;;;-0.83;100.00;96477.84;1040105;28;20026;-71
2020/12/19 01:49:35;;;;;;;23.15;9.57;;;;;;;-0.78;100.00;96470.34;1039734;28;20387;-71
2020/12/19 01:50:06;;;;;;;58.63;10.25;;;;;;;-0.83;100.00;96471.81;1040032;28;20505;-72
2020/12/19 01:50:36;;;;;;;71.68;10.95;;;;;;;-0.87;100.00;96468.75;1047307;28;20023;-72
2020/12/19 01:51:07;;;;;;;41.90;10.73;;;;;;;-0.82;100.00;96463.88;1065094;27;20029;-71
2020/12/19 01:51:37;;;;;;;39.67;10.23;;;;;;;-0.83;100.00;96470.03;1064860;27;20087;-72
2020/12/19 01:52:07;;;;;;;83.65;10.45;;;;;;;-0.77;100.00;96471.16;1060823;27;20023;-72
2020/12/19 01:52:38;;;;;;;59.90;10.57;;;;;;;-0.84;100.00;96472.81;1056519;28;20031;-71
2020/12/19 01:53:08;;;;;;;16.67;8.70;;;;;;;-0.77;100.00;96471.97;1052295;28;20044;-71
2020/12/19 01:53:39;;;;;;;23.95;9.63;;;;;;;-0.78;100.00;96472.97;1052370;28;20023;-71
2020/12/19 01:54:09;;;;;;;26.20;9.20;;;;;;;-0.74;100.00;96473.44;1056582;28;20086;-71
2020/12/19 01:54:40;;;;;;;48.83;10.88;;;;;;;-0.79;100.00;96467.94;1052401;28;20031;-72
2020/12/19 01:55:10;;;;;;;29.55;9.63;;;;;;;-0.76;100.00;96473.59;1052397;28;20054;-72
2020/12/19 01:55:40;;;;;;;21.80;9.52;;;;;;;-0.72;100.00;96472.28;1052306;28;20097;-72
2020/12/19 01:56:11;;;;;;;18.23;8.65;;;;;;;-0.69;100.00;96476.34;1050704;28;20029;-72
2020/12/19 01:56:44;;;;;;;25.50;9.93;;;;;;;-0.68;100.00;96472.75;1056464;28;20020;-72
2020/12/19 01:57:14;;;;;;;18.27;8.68;;;;;;;-0.62;100.00;96472.88;1056169;28;20030;-71
2020/12/19 01:57:45;;;;;;;15.38;8.52;;;;;;;-0.69;100.00;96477.16;1052145;28;20023;-72
2020/12/19 01:58:15;;;;;;;18.13;9.10;;;;;;;-0.67;100.00;96470.00;1056038;28;20016;-72
2020/12/19 01:58:46;;;;;;;35.20;10.30;;;;;;;-0.68;100.00;96470.97;1056115;28;20007;-71
2020/12/19 01:59:16;;;;;;;38.60;10.10;;;;;;;-0.73;100.00;96475.84;1047812;28;20025;-72
2020/12/19 01:59:47;;;;;;;36.70;10.18;;;;;;;-0.75;100.00;96475.22;1048088;28;20438;-72
2020/12/19 02:00:17;;;;;;;46.75;10.48;;;;;;;-0.72;100.00;96464.47;1048438;28;20021;-72
2020/12/19 02:00:47;;;;;;;32.97;10.40;;;;;;;-0.69;100.00;96477.16;1047957;28;20027;-72
2020/12/19 02:01:18;;;;;;;44.45;10.38;;;;;;;-0.75;100.00;96471.81;1053833;28;20025;-71
2020/12/19 02:01:50;;;;;;;27.10;9.80;;;;;;;-0.75;100.00;96471.81;1051699;28;20016;-72
2020/12/19 02:02:22;;;;;;;73.82;11.00;;;;;;;-0.79;100.00;96468.75;1052085;28;20027;-72
2020/12/19 02:02:53;;;;;;;76.00;10.80;;;;;;;-0.78;100.00;96472.97;1052106;28;20552;-72
2020/12/19 02:03:23;;;;;;;94.47;12.48;;;;;;;-0.91;100.00;96475.28;1052781;28;20023;-72
2020/12/19 02:03:53;;;;;;;109.88;12.00;;;;;;;-0.96;100.00;96470.56;1056870;28;20038;-72
2020/12/19 02:04:25;;;;;;;23.25;9.20;;;;;;;-0.94;100.00;96473.84;1056498;28;20426;-72
2020/12/19 02:04:55;;;;;;;54.65;10.73;;;;;;;-0.94;100.00;96473.03;1056850;28;20632;-72
2020/12/19 02:05:25;;;;;;;56.08;11.95;;;;;;;-0.92;100.00;96471.88;1056654;28;20080;-72
2020/12/19 02:05:56;;;;;;;46.97;10.68;;;;;;;-0.85;100.00;96479.81;1060525;27;20068;-72
2020/12/19 02:06:26;;;;;;;55.50;11.27;;;;;;;-0.88;100.00;96469.75;1056373;28;20068;-72
2020/12/19 02:06:57;;;;;;;52.50;10.18;;;;;;;-0.80;100.00;96472.31;1056539;28;20019;-72
2020/12/19 02:07:28;;;;;;;43.13;11.07;;;;;;;-0.83;100.00;96475.25;1056595;28;20151;-72
2020/12/19 02:07:58;;;;;;;55.95;11.40;;;;;;;-0.92;100.00;96471.06;1056473;28;20471;-72
2020/12/19 02:08:29;;;;;;;51.38;9.27;;;;;;;-0.84;100.00;96465.00;1052433;28;20456;-72
2020/12/19 02:08:59;;;;;;;59.10;11.32;;;;;;;-0.93;100.00;96464.25;1048225;28;20005;-73
2020/12/19 02:09:34;;;;;;;29.15;9.25;;;;;;;-0.81;100.00;96468.09;1052240;28;20016;-72
2020/12/19 02:10:04;;;;;;;23.98;9.38;;;;;;;-0.82;100.00;96466.47;1052772;28;20107;-73
2020/12/19 02:10:35;;;;;;;39.38;10.18;;;;;;;-0.77;100.00;96461.56;1052945;28;20024;-72
2020/12/19 02:11:05;;;;;;;91.28;11.70;;;;;;;-0.86;100.00;96467.78;1051401;28;20012;-72
2020/12/19 02:11:36;;;;;;;98.85;13.32;;;;;;;-0.87;100.00;96473.97;1044048;28;20021;-72
2020/12/19 02:12:07;;;;;;;61.83;12.13;;;;;;;-0.89;100.00;96468.13;1044158;28;20466;-73
2020/12/19 02:12:37;;;;;;;41.22;9.82;;;;;;;-0.82;100.00;96463.88;1052269;28;20487;-73
2020/12/19 02:13:07;;;;;;;61.35;11.98;;;;;;;-0.83;100.00;96457.03;1052156;28;20024;-73
2020/12/19 02:13:38;;;;;;;74.50;11.63;;;;;;;-0.85;100.00;96456.38;1056551;28;20357;-73
2020/12/19 02:14:09;;;;;;;138.93;16.02;;;;;;;-0.90;100.00;96450.88;1056436;28;20019;-72
2020/12/19 02:14:39;;;;;;;38.47;9.70;;;;;;;-0.78;100.00;96456.53;1056379;28;20074;-73
2020/12/19 02:15:10;;;;;;;60.67;10.98;;;;;;;-0.81;100.00;96460.28;1056321;28;20026;-72
2020/12/19 02:15:44;;;;;;;36.58;9.77;;;;;;;-0.80;100.00;96456.72;1056518;28;20558;-72
2020/12/19 02:16:18;;;;;;;38.35;10.48;;;;;;;-0.88;100.00;96467.13;1056463;28;20077;-72
2020/12/19 02:17:04;;;;;;;49.97;10.60;;;;;;;-0.88;100.00;96457.53;1056519;28;20020;-73
2020/12/19 02:17:35;;;;;;;43.95;11.27;;;;;;;-0.86;100.00;96454.75;1056864;28;20163;-73
2020/12/19 02:18:05;;;;;;;52.70;11.38;;;;;;;-0.86;100.00;96453.97;1056845;28;20024;-73
2020/12/19 02:18:36;;;;;;;30.45;9.85;;;;;;;-0.81;100.00;96460.28;1056697;28;20019;-73
2020/12/19 02:19:12;;;;;;;22.63;8.50;;;;;;;-0.78;100.00;96456.53;1056817;28;20020;-73
2020/12/19 02:19:42;;;;;;;19.98;8.80;;;;;;;-0.75;100.00;96457.00;1056839;28;20019;-73
2020/12/19 02:20:13;;;;;;;24.65;9.07;;;;;;;-0.75;100.00;96451.78;1056876;28;20076;-73
2020/12/19 02:20:43;;;;;;;47.53;9.90;;;;;;;-0.82;100.00;96450.88;1052692;28;20024;-73
2020/12/19 02:21:14;;;;;;;35.47;9.60;;;;;;;-0.81;100.00;96454.28;1052791;28;20417;-72